createdAt,value
2023-05-06T00:00:46.503Z,100.00
2023-05-06T00:03:40.484Z,100.00
2023-05-06T00:06:32.115Z,100.00
2023-05-06T00:09:12.764Z,100.00
2023-05-06T00:11:54.461Z,100.00
2023-05-06T00:14:37.698Z,100.00
2023-05-06T00:17:17.563Z,100.00
2023-05-06T00:20:10.072Z,100.00
2023-05-06T00:22:50.951Z,100.00
2023-05-06T00:25:25.846Z,100.00
2023-05-06T00:28:20.825Z,100.00
2023-05-06T00:31:03.120Z,100.00
2023-05-06T00:33:44.437Z,100.00
2023-05-06T00:36:26.145Z,100.00
2023-05-06T00:39:06.281Z,100.00
2023-05-06T00:41:47.098Z,100.00
2023-05-06T00:44:36.966Z,100.00
2023-05-06T00:47:18.151Z,100.00
2023-05-06T00:49:56.223Z,100.00
2023-05-06T00:52:41.717Z,100.00
2023-05-06T00:55:23.372Z,100.00
2023-05-06T00:58:05.120Z,100.00
2023-05-06T01:00:54.920Z,100.00
2023-05-06T01:03:32.652Z,100.00
2023-05-06T01:06:47.132Z,100.00
2023-05-06T01:09:41.106Z,100.00
2023-05-06T01:12:53.201Z,100.00
2023-05-06T01:15:51.176Z,100.00
2023-05-06T01:18:37.494Z,100.00
2023-05-06T01:21:25.501Z,100.00
2023-05-06T01:24:13.952Z,100.00
2023-05-06T01:27:04.231Z,100.00
2023-05-06T01:29:45.503Z,100.00
2023-05-06T01:32:53.267Z,100.00
2023-05-06T01:35:33.603Z,100.00
2023-05-06T01:38:30.573Z,100.00
2023-05-06T01:41:13.704Z,100.00
2023-05-06T01:44:08.307Z,100.00
2023-05-06T01:46:50.382Z,100.00
2023-05-06T01:49:29.251Z,100.00
2023-05-06T01:52:07.736Z,100.00
2023-05-06T01:54:45.981Z,100.00
2023-05-06T01:57:29.263Z,100.00
2023-05-06T02:00:10.503Z,100.00
2023-05-06T02:02:54.878Z,100.00
2023-05-06T02:05:35.603Z,100.00
2023-05-06T02:08:19.098Z,100.00
2023-05-06T02:11:03.117Z,100.00
2023-05-06T02:13:44.494Z,100.00
2023-05-06T02:16:22.843Z,100.00
2023-05-06T02:19:07.934Z,100.00
2023-05-06T02:21:46.936Z,100.00
2023-05-06T02:24:33.013Z,100.00
2023-05-06T02:27:19.057Z,100.00
2023-05-06T02:30:06.587Z,100.00
2023-05-06T02:32:47.856Z,100.00
2023-05-06T02:35:28.640Z,100.00
2023-05-06T02:38:18.477Z,100.00
2023-05-06T02:41:17.040Z,100.00
2023-05-06T02:44:06.381Z,100.00
2023-05-06T02:46:44.973Z,100.00
2023-05-06T02:49:20.757Z,100.00
2023-05-06T02:52:08.793Z,100.00
2023-05-06T02:54:54.054Z,100.00
2023-05-06T02:57:37.256Z,100.00
2023-05-06T03:00:18.074Z,100.00
2023-05-06T03:02:56.407Z,100.00
2023-05-06T03:05:51.029Z,100.00
2023-05-06T03:08:37.149Z,100.00
2023-05-06T03:11:20.095Z,100.00
2023-05-06T03:14:06.644Z,100.00
2023-05-06T03:16:47.751Z,100.00
2023-05-06T03:19:29.577Z,100.00
2023-05-06T03:22:05.276Z,100.00
2023-05-06T03:24:52.464Z,100.00
2023-05-06T03:27:38.525Z,100.00
2023-05-06T03:30:28.199Z,100.00
2023-05-06T03:33:18.111Z,100.00
2023-05-06T03:35:58.948Z,100.00
2023-05-06T03:38:42.378Z,100.00
2023-05-06T03:41:26.835Z,100.00
2023-05-06T03:44:04.950Z,100.00
2023-05-06T03:46:51.415Z,100.00
2023-05-06T03:49:32.244Z,100.00
2023-05-06T03:52:27.128Z,100.00
2023-05-06T03:55:09.905Z,100.00
2023-05-06T03:57:59.052Z,100.00
2023-05-06T04:00:44.823Z,100.00
2023-05-06T04:03:31.515Z,100.00
2023-05-06T04:06:13.379Z,100.00
2023-05-06T04:08:54.628Z,100.00
2023-05-06T04:11:40.786Z,100.00
2023-05-06T04:14:27.543Z,100.00
2023-05-06T04:17:14.785Z,100.00
2023-05-06T04:19:58.118Z,100.00
2023-05-06T04:22:41.397Z,100.00
2023-05-06T04:25:28.010Z,100.00
2023-05-06T04:28:08.390Z,100.00
2023-05-06T04:30:49.320Z,100.00
2023-05-06T04:33:32.885Z,100.00
2023-05-06T04:36:16.267Z,100.00
2023-05-06T04:39:17.642Z,100.00
2023-05-06T04:42:12.858Z,100.00
2023-05-06T04:44:57.017Z,100.00
2023-05-06T04:47:50.238Z,100.00
2023-05-06T04:50:49.735Z,100.00
2023-05-06T04:53:43.149Z,100.00
2023-05-06T04:56:21.195Z,100.00
2023-05-06T04:59:07.757Z,100.00
2023-05-06T05:01:49.037Z,100.00
2023-05-06T05:04:27.643Z,100.00
2023-05-06T05:07:02.766Z,100.00
2023-05-06T05:09:39.928Z,100.00
2023-05-06T05:12:19.922Z,100.00
2023-05-06T05:15:07.031Z,100.00
2023-05-06T05:17:45.691Z,100.00
2023-05-06T05:20:29.659Z,100.00
2023-05-06T05:23:18.996Z,100.00
2023-05-06T05:26:07.892Z,100.00
2023-05-06T05:28:59.066Z,100.00
2023-05-06T05:31:41.172Z,100.00
2023-05-06T05:34:24.859Z,100.00
2023-05-06T05:37:14.492Z,100.00
2023-05-06T05:40:04.336Z,100.00
2023-05-06T05:42:51.299Z,100.00
2023-05-06T05:45:48.483Z,100.00
2023-05-06T05:48:24.142Z,100.00
2023-05-06T05:51:29.149Z,100.00
2023-05-06T05:54:15.988Z,100.00
2023-05-06T05:57:04.317Z,100.00
2023-05-06T05:59:51.024Z,100.00
2023-05-06T06:02:38.068Z,100.00
2023-05-06T06:05:18.220Z,100.00
2023-05-06T06:08:01.137Z,100.00
2023-05-06T06:10:53.409Z,100.00
2023-05-06T06:13:47.804Z,97.08
2023-05-06T06:16:25.879Z,88.18
2023-05-06T06:19:15.393Z,80.64
2023-05-06T06:21:56.205Z,74.22
2023-05-06T06:24:46.192Z,73.67
2023-05-06T06:27:43.897Z,73.13
2023-05-06T06:30:19.630Z,70.93
2023-05-06T06:33:02.076Z,70.35
2023-05-06T06:35:46.017Z,70.98
2023-05-06T06:38:35.022Z,68.96
2023-05-06T06:41:11.129Z,68.54
2023-05-06T06:43:54.156Z,65.87
2023-05-06T06:46:45.984Z,63.69
2023-05-06T06:49:41.317Z,64.48
2023-05-06T06:52:27.443Z,63.32
2023-05-06T06:55:10.708Z,64.30
2023-05-06T06:58:03.606Z,66.34
2023-05-06T07:00:47.649Z,63.45
2023-05-06T07:03:31.201Z,64.56
2023-05-06T07:06:05.230Z,66.49
2023-05-06T07:08:40.227Z,65.67
2023-05-06T07:11:27.123Z,60.72
2023-05-06T07:14:02.444Z,64.45
2023-05-06T07:16:39.560Z,66.14
2023-05-06T07:19:20.208Z,63.80
2023-05-06T07:22:08.585Z,66.86
2023-05-06T07:24:46.841Z,66.09
2023-05-06T07:27:24.294Z,64.83
2023-05-06T07:30:23.401Z,62.15
2023-05-06T07:33:09.848Z,62.97
2023-05-06T07:35:50.799Z,59.19
2023-05-06T07:38:39.526Z,59.95
2023-05-06T07:41:33.691Z,58.33
2023-05-06T07:44:17.451Z,56.75
2023-05-06T07:47:10.925Z,60.26
2023-05-06T07:49:52.154Z,60.68
2023-05-06T07:52:32.858Z,62.27
2023-05-06T07:55:13.760Z,60.58
2023-05-06T07:58:13.372Z,58.98
2023-05-06T08:00:54.126Z,59.57
2023-05-06T08:03:44.242Z,56.57
2023-05-06T08:06:28.105Z,59.52
2023-05-06T08:09:22.281Z,62.04
2023-05-06T08:12:06.165Z,59.87
2023-05-06T08:14:38.944Z,62.23
2023-05-06T08:17:24.909Z,55.77
2023-05-06T08:20:08.673Z,57.81
2023-05-06T08:22:55.440Z,55.95
2023-05-06T08:25:39.055Z,58.77
2023-05-06T08:28:20.432Z,57.62
2023-05-06T08:31:10.564Z,60.46
2023-05-06T08:33:54.823Z,60.56
2023-05-06T08:36:38.069Z,59.59
2023-05-06T08:39:28.503Z,63.97
2023-05-06T08:42:16.119Z,61.43
2023-05-06T08:44:52.185Z,63.65
2023-05-06T08:47:39.587Z,59.79
2023-05-06T08:50:27.164Z,59.43
2023-05-06T08:53:09.087Z,56.70
2023-05-06T08:55:53.458Z,59.57
2023-05-06T08:58:36.073Z,57.73
2023-05-06T09:01:24.729Z,57.94
2023-05-06T09:04:05.468Z,57.03
2023-05-06T09:06:43.751Z,56.46
2023-05-06T09:09:19.612Z,53.09
2023-05-06T09:12:17.002Z,55.16
2023-05-06T09:14:59.682Z,53.62
2023-05-06T09:17:52.068Z,54.33
2023-05-06T09:20:38.865Z,56.59
2023-05-06T09:23:27.713Z,55.63
2023-05-06T09:26:11.970Z,55.20
2023-05-06T09:28:57.658Z,57.23
2023-05-06T09:31:30.844Z,56.76
2023-05-06T09:34:05.071Z,53.19
2023-05-06T09:36:45.921Z,54.63
2023-05-06T09:39:24.661Z,54.58
2023-05-06T09:42:14.151Z,50.58
2023-05-06T09:45:05.696Z,51.61
2023-05-06T09:47:53.153Z,51.06
2023-05-06T09:50:28.277Z,49.07
2023-05-06T09:53:14.499Z,51.46
2023-05-06T09:56:04.434Z,51.28
2023-05-06T09:58:51.572Z,51.73
2023-05-06T10:01:37.563Z,47.92
2023-05-06T10:04:26.812Z,48.44
2023-05-06T10:07:12.924Z,50.72
2023-05-06T10:10:01.172Z,51.12
2023-05-06T10:12:44.863Z,46.75
2023-05-06T10:15:33.982Z,44.89
2023-05-06T10:18:19.817Z,43.26
2023-05-06T10:20:58.641Z,43.08
2023-05-06T10:24:17.502Z,43.04
2023-05-06T10:27:04.721Z,45.98
2023-05-06T10:30:03.984Z,46.57
2023-05-06T10:32:52.924Z,43.32
2023-05-06T10:35:57.427Z,47.10
2023-05-06T10:38:55.081Z,42.69
2023-05-06T10:41:29.424Z,43.93
2023-05-06T10:44:07.083Z,45.88
2023-05-06T10:47:06.007Z,46.77
2023-05-06T10:49:50.091Z,48.59
2023-05-06T10:52:33.577Z,47.73
2023-05-06T10:55:39.118Z,41.92
2023-05-06T10:58:38.962Z,40.58
2023-05-06T11:01:25.295Z,43.98
2023-05-06T11:04:20.103Z,43.19
2023-05-06T11:07:13.553Z,44.39
2023-05-06T11:10:10.853Z,39.69
2023-05-06T11:13:02.200Z,43.55
2023-05-06T11:15:46.033Z,43.49
2023-05-06T11:18:53.685Z,41.17
2023-05-06T11:21:43.873Z,41.45
2023-05-06T11:24:37.140Z,41.61
2023-05-06T11:27:27.788Z,42.76
2023-05-06T11:30:08.646Z,41.23
2023-05-06T11:32:58.985Z,44.94
2023-05-06T11:35:54.080Z,44.92
2023-05-06T11:38:52.547Z,42.77
2023-05-06T11:41:39.724Z,45.14
2023-05-06T11:44:26.181Z,47.23
2023-05-06T11:47:20.950Z,47.10
2023-05-06T11:50:07.508Z,48.07
2023-05-06T11:52:54.452Z,48.29
2023-05-06T11:55:50.315Z,45.98
2023-05-06T11:58:40.752Z,49.91
2023-05-06T12:01:28.110Z,49.13
2023-05-06T12:04:17.391Z,48.70
2023-05-06T12:07:07.921Z,47.64
2023-05-06T12:09:50.130Z,46.70
2023-05-06T12:12:35.149Z,47.90
2023-05-06T12:15:13.785Z,49.04
2023-05-06T12:17:52.459Z,50.38
2023-05-06T12:20:35.317Z,49.01
2023-05-06T12:23:25.899Z,50.94
2023-05-06T12:26:12.780Z,48.74
2023-05-06T12:29:09.112Z,50.32
2023-05-06T12:31:50.127Z,51.05
2023-05-06T12:34:50.873Z,52.53
2023-05-06T12:37:59.800Z,51.58
2023-05-06T12:40:35.294Z,53.71
2023-05-06T12:43:16.497Z,51.31
2023-05-06T12:46:12.540Z,52.13
2023-05-06T12:49:09.012Z,50.61
2023-05-06T12:51:49.470Z,49.48
2023-05-06T12:54:42.172Z,51.25
2023-05-06T12:57:29.340Z,54.49
2023-05-06T13:00:21.264Z,50.79
2023-05-06T13:03:14.233Z,53.48
2023-05-06T13:05:54.195Z,52.18
2023-05-06T13:08:39.522Z,52.75
2023-05-06T13:11:28.595Z,53.18
2023-05-06T13:14:12.130Z,56.04
2023-05-06T13:17:00.451Z,55.88
2023-05-06T13:19:48.888Z,56.95
2023-05-06T13:22:53.318Z,59.10
2023-05-06T13:25:42.023Z,59.07
2023-05-06T13:28:32.150Z,61.79
2023-05-06T13:31:18.427Z,61.47
2023-05-06T13:34:07.321Z,61.94
2023-05-06T13:36:45.489Z,62.84
2023-05-06T13:39:34.893Z,63.85
2023-05-06T13:42:30.464Z,64.20
2023-05-06T13:45:20.498Z,64.02
2023-05-06T13:48:08.240Z,65.84
2023-05-06T13:50:52.574Z,66.86
2023-05-06T13:53:39.633Z,69.27
2023-05-06T13:56:29.971Z,70.45
2023-05-06T13:59:12.924Z,71.13
2023-05-06T14:01:56.805Z,72.73
2023-05-06T14:04:48.868Z,74.76
2023-05-06T14:07:37.992Z,74.65
2023-05-06T14:10:31.801Z,77.15
2023-05-06T14:13:17.975Z,78.96
2023-05-06T14:16:13.171Z,80.19
2023-05-06T14:18:52.150Z,82.33
2023-05-06T14:21:41.439Z,84.19
2023-05-06T14:24:23.116Z,86.59
2023-05-06T14:27:00.783Z,90.98
2023-05-06T14:29:53.060Z,96.64
2023-05-06T14:32:37.657Z,100.00
2023-05-06T14:35:28.029Z,100.00
2023-05-06T14:38:09.555Z,100.00
2023-05-06T14:40:46.705Z,100.00
2023-05-06T14:43:27.768Z,100.00
2023-05-06T14:46:13.374Z,100.00
2023-05-06T14:48:59.072Z,100.00
2023-05-06T14:51:32.534Z,100.00
2023-05-06T14:54:10.429Z,100.00
2023-05-06T14:56:53.688Z,100.00
2023-05-06T14:59:58.152Z,100.00
2023-05-06T15:02:35.688Z,100.00
2023-05-06T15:05:12.120Z,100.00
2023-05-06T15:07:55.841Z,100.00
2023-05-06T15:10:45.747Z,100.00
2023-05-06T15:13:32.042Z,100.00
2023-05-06T15:16:10.558Z,100.00
2023-05-06T15:18:48.986Z,100.00
2023-05-06T15:21:29.545Z,100.00
2023-05-06T15:24:13.653Z,100.00
2023-05-06T15:26:46.017Z,100.00
2023-05-06T15:29:30.517Z,100.00
2023-05-06T15:32:05.286Z,100.00
2023-05-06T15:34:47.617Z,100.00
2023-05-06T15:37:25.335Z,100.00
2023-05-06T15:40:17.519Z,100.00
2023-05-06T15:42:58.223Z,100.00
2023-05-06T15:45:44.881Z,100.00
2023-05-06T15:48:29.304Z,98.13
2023-05-06T15:51:09.666Z,99.08
2023-05-06T15:53:57.367Z,97.12
2023-05-06T15:56:46.935Z,94.96
2023-05-06T15:59:27.699Z,91.35
2023-05-06T16:05:13.052Z,89.27
2023-05-06T16:07:59.966Z,80.18
2023-05-06T16:10:47.397Z,76.54
2023-05-06T16:13:37.528Z,68.69
2023-05-06T16:16:18.652Z,68.42
2023-05-06T16:19:08.039Z,68.11
2023-05-06T16:21:51.126Z,62.71
2023-05-06T16:24:37.869Z,62.25
2023-05-06T16:27:19.770Z,59.61
2023-05-06T16:30:05.233Z,59.85
2023-05-06T16:32:51.777Z,59.23
2023-05-06T16:35:30.388Z,61.68
2023-05-06T16:38:19.540Z,70.73
2023-05-06T16:41:00.855Z,69.65
2023-05-06T16:43:39.097Z,72.28
2023-05-06T16:46:24.830Z,77.48
2023-05-06T16:49:13.949Z,85.63
2023-05-06T16:52:01.105Z,93.42
2023-05-06T16:54:42.934Z,97.23
2023-05-06T16:57:20.611Z,100.00
2023-05-06T17:00:00.505Z,100.00
2023-05-06T17:02:40.890Z,100.00
2023-05-06T17:05:22.344Z,100.00
2023-05-06T17:07:54.506Z,100.00
2023-05-06T17:10:43.670Z,100.00
2023-05-06T17:13:24.068Z,100.00
2023-05-06T17:16:07.101Z,100.00
2023-05-06T17:18:42.514Z,100.00
2023-05-06T17:21:25.039Z,100.00
2023-05-06T17:24:04.985Z,100.00
2023-05-06T17:26:41.069Z,100.00
2023-05-06T17:29:22.346Z,100.00
2023-05-06T17:32:08.691Z,100.00
2023-05-06T17:34:49.231Z,100.00
2023-05-06T17:37:31.669Z,100.00
2023-05-06T17:40:18.248Z,100.00
2023-05-06T17:43:04.217Z,100.00
2023-05-06T17:45:40.965Z,100.00
2023-05-06T17:51:56.201Z,100.00
2023-05-06T17:54:57.505Z,100.00
2023-05-06T18:01:41.952Z,100.00
2023-05-06T18:07:44.750Z,100.00
2023-05-06T18:10:45.057Z,100.00
2023-05-06T18:13:35.123Z,100.00
2023-05-06T18:16:43.560Z,100.00
2023-05-06T18:23:05.711Z,100.00
2023-05-06T18:25:44.394Z,100.00
2023-05-06T18:28:46.978Z,100.00
2023-05-06T18:44:26.234Z,100.00
2023-05-06T18:47:14.617Z,100.00
2023-05-06T18:53:14.419Z,100.00
2023-05-06T18:55:50.954Z,100.00
2023-05-06T18:58:44.072Z,100.00
2023-05-06T19:01:26.293Z,100.00
2023-05-06T19:04:01.613Z,100.00
2023-05-06T19:06:46.148Z,100.00
2023-05-06T19:09:27.284Z,100.00
2023-05-06T19:12:12.172Z,100.00
2023-05-06T19:14:52.634Z,100.00
2023-05-06T19:17:36.010Z,100.00
2023-05-06T19:20:14.689Z,100.00
2023-05-06T19:23:16.204Z,100.00
2023-05-06T19:25:46.107Z,100.00
2023-05-06T19:28:29.337Z,100.00
2023-05-06T19:31:34.912Z,100.00
2023-05-06T19:34:18.754Z,100.00
2023-05-06T19:37:10.176Z,100.00
2023-05-06T19:39:56.320Z,100.00
2023-05-06T19:42:40.679Z,100.00
2023-05-06T19:45:17.522Z,100.00
2023-05-06T19:47:56.612Z,100.00
2023-05-06T19:50:36.268Z,100.00
2023-05-06T19:53:20.184Z,100.00
2023-05-06T19:56:14.946Z,100.00
2023-05-06T19:59:04.148Z,100.00
2023-05-06T20:01:49.224Z,100.00
2023-05-06T20:04:35.937Z,100.00
2023-05-06T20:07:14.569Z,100.00
2023-05-06T20:10:00.309Z,100.00
2023-05-06T20:12:42.025Z,100.00
2023-05-06T20:15:25.266Z,100.00
2023-05-06T20:18:08.999Z,100.00
2023-05-06T20:20:56.452Z,100.00
2023-05-06T20:23:42.558Z,100.00
2023-05-06T20:26:26.110Z,100.00
2023-05-06T20:29:01.699Z,100.00
2023-05-06T20:31:46.170Z,100.00
2023-05-06T20:34:30.112Z,100.00
2023-05-06T20:37:10.495Z,100.00
2023-05-06T20:39:49.232Z,100.00
2023-05-06T20:42:27.825Z,100.00
2023-05-06T20:45:13.001Z,100.00
2023-05-06T20:47:58.369Z,100.00
2023-05-06T20:50:33.004Z,100.00
2023-05-06T20:53:20.112Z,100.00
2023-05-06T20:55:57.096Z,100.00
2023-05-06T20:58:33.183Z,100.00
2023-05-06T21:01:18.581Z,100.00
2023-05-06T21:03:59.200Z,100.00
2023-05-06T21:06:41.153Z,100.00
2023-05-06T21:09:25.862Z,100.00
2023-05-06T21:12:09.170Z,100.00
2023-05-06T21:14:59.084Z,100.00
2023-05-06T21:17:38.570Z,100.00
2023-05-06T21:20:23.019Z,100.00
2023-05-06T21:23:06.783Z,100.00
2023-05-06T21:26:02.829Z,100.00
2023-05-06T21:28:51.334Z,100.00
2023-05-06T21:31:41.322Z,100.00
2023-05-06T21:34:22.091Z,100.00
2023-05-06T21:37:05.390Z,100.00
2023-05-06T21:39:40.890Z,100.00
2023-05-06T21:42:21.571Z,100.00
2023-05-06T21:45:00.424Z,100.00
2023-05-06T21:47:41.038Z,100.00
2023-05-06T21:50:21.613Z,100.00
2023-05-06T21:53:12.335Z,100.00
2023-05-06T21:55:56.134Z,100.00
2023-05-06T21:58:33.915Z,100.00
2023-05-06T22:01:26.136Z,100.00
2023-05-06T22:04:13.139Z,100.00
2023-05-06T22:06:57.125Z,100.00
2023-05-06T22:09:40.211Z,100.00
2023-05-06T22:12:18.996Z,100.00
2023-05-06T22:15:05.085Z,100.00
2023-05-06T22:17:42.261Z,100.00
2023-05-06T22:20:22.546Z,100.00
2023-05-06T22:23:10.888Z,100.00
2023-05-06T22:25:52.591Z,100.00
2023-05-06T22:28:33.186Z,100.00
2023-05-06T22:31:14.624Z,100.00
2023-05-06T22:34:06.333Z,100.00
2023-05-06T22:36:44.643Z,100.00
2023-05-06T22:39:33.645Z,100.00
2023-05-06T22:42:17.197Z,100.00
2023-05-06T22:45:08.908Z,100.00
2023-05-06T22:47:56.177Z,100.00
2023-05-06T22:50:39.005Z,100.00
2023-05-06T22:53:24.998Z,100.00
2023-05-06T22:56:13.272Z,100.00
2023-05-06T22:58:59.171Z,100.00
2023-05-06T23:01:51.576Z,100.00
2023-05-06T23:04:31.840Z,100.00
2023-05-06T23:07:19.083Z,100.00
2023-05-06T23:09:51.174Z,100.00
2023-05-06T23:12:40.379Z,100.00
2023-05-06T23:15:23.106Z,100.00
2023-05-06T23:18:06.984Z,100.00
2023-05-06T23:20:53.052Z,100.00
2023-05-06T23:23:34.271Z,100.00
2023-05-06T23:26:17.481Z,100.00
2023-05-06T23:29:05.105Z,100.00
2023-05-06T23:31:47.669Z,100.00
2023-05-06T23:34:28.521Z,100.00
2023-05-06T23:37:20.395Z,100.00
2023-05-06T23:39:58.709Z,100.00
2023-05-06T23:42:40.106Z,100.00
2023-05-06T23:45:15.061Z,100.00
2023-05-06T23:48:06.340Z,100.00
2023-05-06T23:50:44.643Z,100.00
2023-05-06T23:53:28.905Z,100.00
2023-05-06T23:56:12.674Z,100.00
2023-05-06T23:58:55.771Z,100.00
